createdAt,value
2018-12-30T00:00:30.785Z,12.27
2018-12-30T00:03:00.555Z,12.83
2018-12-30T00:05:30.249Z,11.63
2018-12-30T00:07:59.926Z,12.90
2018-12-30T00:10:29.289Z,15.53
2018-12-30T00:12:58.758Z,12.60
2018-12-30T00:15:28.429Z,14.53
2018-12-30T00:17:58.094Z,16.10
2018-12-30T00:20:27.868Z,16.93
2018-12-30T00:22:57.150Z,16.50
2018-12-30T00:25:26.512Z,17.20
2018-12-30T00:27:56.111Z,14.37
2018-12-30T00:30:25.479Z,15.47
2018-12-30T00:32:55.086Z,12.93
2018-12-30T00:35:24.405Z,14.90
2018-12-30T00:37:53.694Z,15.23
2018-12-30T00:40:23.785Z,9.97
2018-12-30T00:42:53.514Z,15.53
2018-12-30T00:45:22.835Z,11.47
2018-12-30T00:47:52.157Z,16.30
2018-12-30T00:50:21.551Z,14.37
2018-12-30T00:52:51.264Z,10.87
2018-12-30T00:55:20.678Z,12.67
2018-12-30T00:57:50.005Z,13.93
2018-12-30T01:00:19.357Z,17.77
2018-12-30T01:02:49.058Z,18.43
2018-12-30T01:05:18.529Z,11.57
2018-12-30T01:07:48.197Z,12.57
2018-12-30T01:10:18.287Z,16.57
2018-12-30T01:12:48.004Z,13.40
2018-12-30T01:15:17.613Z,13.57
2018-12-30T01:17:47.021Z,10.67
2018-12-30T01:20:16.902Z,13.17
2018-12-30T01:22:46.305Z,15.97
2018-12-30T01:25:15.654Z,9.57
2018-12-30T01:27:45.100Z,16.93
2018-12-30T01:30:14.746Z,16.47
2018-12-30T01:32:44.370Z,13.03
2018-12-30T01:35:13.668Z,18.30
2018-12-30T01:37:42.986Z,15.73
2018-12-30T01:40:12.346Z,13.07
2018-12-30T01:42:41.628Z,12.33
2018-12-30T01:45:11.374Z,13.07
2018-12-30T01:47:40.644Z,16.23
2018-12-30T01:50:13.052Z,11.20
2018-12-30T01:52:42.406Z,12.30
2018-12-30T01:55:11.798Z,11.93
2018-12-30T01:57:41.707Z,15.23
2018-12-30T02:00:11.064Z,11.83
2018-12-30T02:02:43.472Z,11.33
2018-12-30T02:05:12.912Z,11.90
2018-12-30T02:07:46.094Z,18.20
2018-12-30T02:10:15.584Z,13.20
2018-12-30T02:12:45.253Z,10.90
2018-12-30T02:15:15.347Z,12.07
2018-12-30T02:17:44.695Z,13.97
2018-12-30T02:20:14.577Z,13.30
2018-12-30T02:22:43.869Z,14.47
2018-12-30T02:25:13.215Z,13.50
2018-12-30T02:27:42.548Z,14.40
2018-12-30T02:30:12.225Z,9.87
2018-12-30T02:32:41.998Z,11.60
2018-12-30T02:35:11.698Z,12.37
2018-12-30T02:37:41.093Z,12.20
2018-12-30T02:40:10.643Z,11.37
2018-12-30T02:42:40.057Z,11.27
2018-12-30T02:45:09.437Z,9.27
2018-12-30T02:47:38.802Z,11.07
2018-12-30T02:50:08.500Z,8.63
2018-12-30T02:52:37.863Z,10.57
2018-12-30T02:55:07.144Z,13.20
2018-12-30T02:57:36.509Z,13.57
2018-12-30T03:00:06.737Z,17.83
2018-12-30T03:02:36.325Z,10.63
2018-12-30T03:05:05.745Z,10.87
2018-12-30T03:07:35.668Z,14.10
2018-12-30T03:10:05.447Z,14.23
2018-12-30T03:12:35.181Z,11.73
2018-12-30T03:15:04.859Z,14.53
2018-12-30T03:17:34.093Z,13.43
2018-12-30T03:20:05.193Z,12.77
2018-12-30T03:22:34.519Z,12.27
2018-12-30T03:25:03.809Z,12.17
2018-12-30T03:27:33.199Z,16.63
2018-12-30T03:30:02.940Z,14.60
2018-12-30T03:32:32.387Z,15.37
2018-12-30T03:35:02.060Z,12.73
2018-12-30T03:37:31.333Z,10.03
2018-12-30T03:40:00.965Z,16.70
2018-12-30T03:42:30.990Z,13.70
2018-12-30T03:45:00.356Z,12.10
2018-12-30T03:47:29.721Z,13.27
2018-12-30T03:49:59.020Z,12.30
2018-12-30T03:52:28.300Z,14.20
2018-12-30T03:54:57.665Z,14.57
2018-12-30T03:57:27.055Z,11.57
2018-12-30T03:59:56.715Z,13.07
2018-12-30T04:02:26.091Z,9.73
2018-12-30T04:04:55.495Z,14.63
2018-12-30T04:07:24.807Z,16.17
2018-12-30T04:09:54.177Z,9.77
2018-12-30T04:12:23.509Z,8.73
2018-12-30T04:14:52.789Z,11.43
2018-12-30T04:17:22.788Z,11.07
2018-12-30T04:19:52.167Z,14.73
2018-12-30T04:22:21.869Z,11.23
2018-12-30T04:24:51.482Z,13.77
2018-12-30T04:27:23.683Z,6.63
2018-12-30T04:29:53.069Z,11.97
2018-12-30T04:32:22.349Z,13.13
2018-12-30T04:34:51.741Z,11.93
2018-12-30T04:37:21.037Z,12.30
2018-12-30T04:39:50.429Z,10.57
2018-12-30T04:42:20.090Z,12.20
2018-12-30T04:44:49.490Z,14.90
2018-12-30T04:47:19.233Z,10.10
2018-12-30T04:49:48.653Z,16.23
2018-12-30T04:52:25.386Z,11.23
2018-12-30T04:54:49.144Z,14.67
2018-12-30T04:57:18.862Z,13.17
2018-12-30T04:59:48.259Z,10.40
2018-12-30T05:02:18.267Z,19.57
2018-12-30T05:04:47.671Z,15.93
2018-12-30T05:07:16.953Z,14.77
2018-12-30T05:09:46.355Z,15.17
2018-12-30T05:12:15.731Z,16.13
2018-12-30T05:14:45.382Z,19.20
2018-12-30T05:17:14.671Z,13.93
2018-12-30T05:19:44.030Z,17.60
2018-12-30T05:22:13.391Z,13.43
2018-12-30T05:24:42.751Z,12.80
2018-12-30T05:27:12.071Z,17.83
2018-12-30T05:29:41.819Z,18.97
2018-12-30T05:32:11.533Z,12.80
2018-12-30T05:34:41.289Z,18.97
2018-12-30T05:37:10.995Z,17.70
2018-12-30T05:39:41.067Z,14.20
2018-12-30T05:42:10.498Z,17.70
2018-12-30T05:44:39.855Z,15.20
2018-12-30T05:47:12.078Z,14.50
2018-12-30T05:49:41.449Z,18.60
2018-12-30T05:52:10.737Z,19.60
2018-12-30T05:54:40.358Z,15.93
2018-12-30T05:57:09.746Z,17.13
2018-12-30T05:59:39.033Z,17.13
2018-12-30T06:02:08.392Z,16.77
2018-12-30T06:04:38.168Z,15.47
2018-12-30T06:07:07.470Z,17.63
2018-12-30T06:09:37.277Z,16.80
2018-12-30T06:12:06.653Z,19.83
2018-12-30T06:14:36.008Z,16.07
2018-12-30T06:17:06.118Z,21.33
2018-12-30T06:19:35.639Z,16.70
2018-12-30T06:22:05.354Z,23.33
2018-12-30T06:24:35.014Z,19.20
2018-12-30T06:27:04.317Z,13.20
2018-12-30T06:29:33.699Z,17.77
2018-12-30T06:32:03.427Z,15.03
2018-12-30T06:34:33.126Z,16.73
2018-12-30T06:37:02.896Z,15.83
2018-12-30T06:39:32.607Z,13.73
2018-12-30T06:42:01.917Z,17.73
2018-12-30T06:44:31.141Z,17.10
2018-12-30T06:47:00.559Z,11.80
2018-12-30T06:49:30.201Z,15.37
2018-12-30T06:51:59.568Z,14.00
2018-12-30T06:54:29.335Z,13.83
2018-12-30T06:56:58.753Z,14.50
2018-12-30T06:59:28.047Z,18.87
2018-12-30T07:01:57.352Z,12.07
2018-12-30T07:04:26.693Z,15.77
2018-12-30T07:06:56.403Z,11.90
2018-12-30T07:09:26.380Z,16.30
2018-12-30T07:11:55.786Z,12.23
2018-12-30T07:14:25.398Z,12.53
2018-12-30T07:16:55.179Z,14.77
2018-12-30T07:19:24.845Z,16.23
2018-12-30T07:21:54.138Z,13.70
2018-12-30T07:24:23.503Z,20.37
2018-12-30T07:26:52.888Z,18.23
2018-12-30T07:29:22.607Z,14.50
2018-12-30T07:31:51.907Z,15.10
2018-12-30T07:34:21.229Z,16.70
2018-12-30T07:36:50.611Z,16.20
2018-12-30T07:39:19.967Z,12.27
2018-12-30T07:41:49.363Z,20.07
2018-12-30T07:44:18.747Z,19.77
2018-12-30T07:46:48.237Z,16.73
2018-12-30T07:49:17.651Z,14.93
2018-12-30T07:51:46.943Z,17.80
2018-12-30T07:54:16.681Z,18.93
2018-12-30T07:56:46.345Z,21.23
2018-12-30T07:59:15.645Z,22.80
2018-12-30T08:01:45.383Z,21.40
2018-12-30T08:04:14.706Z,18.37
2018-12-30T08:06:44.110Z,17.10
2018-12-30T08:09:13.824Z,22.00
2018-12-30T08:11:43.522Z,16.60
2018-12-30T08:14:12.817Z,21.83
2018-12-30T08:16:42.197Z,22.27
2018-12-30T08:19:11.627Z,22.23
2018-12-30T08:21:41.365Z,20.43
2018-12-30T08:24:10.747Z,17.33
2018-12-30T08:26:40.143Z,21.60
2018-12-30T08:29:09.892Z,22.77
2018-12-30T08:31:39.255Z,18.43
2018-12-30T08:34:08.967Z,23.93
2018-12-30T08:36:38.632Z,20.23
2018-12-30T08:39:08.797Z,16.80
2018-12-30T08:41:38.585Z,16.93
2018-12-30T08:44:07.970Z,21.73
2018-12-30T08:46:37.655Z,19.37
2018-12-30T08:49:08.047Z,18.40
2018-12-30T08:51:37.345Z,19.90
2018-12-30T08:54:06.693Z,20.30
2018-12-30T08:56:36.410Z,18.53
2018-12-30T08:59:07.169Z,20.90
2018-12-30T09:01:36.827Z,17.30
2018-12-30T09:04:06.169Z,22.30
2018-12-30T09:06:35.471Z,16.37
2018-12-30T09:09:07.555Z,21.80
2018-12-30T09:11:37.313Z,16.00
2018-12-30T09:14:10.473Z,19.37
2018-12-30T09:16:39.723Z,15.80
2018-12-30T09:19:09.417Z,19.10
2018-12-30T09:21:38.799Z,19.40
2018-12-30T09:24:08.191Z,22.70
2018-12-30T09:26:37.601Z,18.33
2018-12-30T09:29:07.727Z,22.60
2018-12-30T09:31:38.375Z,18.40
2018-12-30T09:34:08.097Z,15.37
2018-12-30T09:36:37.807Z,16.53
2018-12-30T09:39:08.043Z,16.40
2018-12-30T09:41:37.365Z,12.97
2018-12-30T09:44:06.922Z,16.00
2018-12-30T09:46:36.347Z,17.90
2018-12-30T09:49:05.661Z,16.07
2018-12-30T09:51:34.961Z,17.50
2018-12-30T09:54:04.350Z,16.60
2018-12-30T09:56:34.135Z,13.83
2018-12-30T09:59:03.538Z,17.00
2018-12-30T10:01:32.780Z,15.43
2018-12-30T10:04:02.558Z,17.77
2018-12-30T10:06:33.831Z,15.40
2018-12-30T10:09:04.356Z,16.43
2018-12-30T10:11:37.781Z,17.47
2018-12-30T10:14:07.707Z,11.60
2018-12-30T10:16:37.376Z,15.30
2018-12-30T10:19:06.763Z,14.67
2018-12-30T10:21:36.158Z,18.87
2018-12-30T10:24:05.727Z,19.20
2018-12-30T10:26:35.013Z,17.60
2018-12-30T10:29:04.285Z,15.43
2018-12-30T10:31:34.303Z,14.83
2018-12-30T10:34:03.689Z,18.67
2018-12-30T10:36:33.702Z,16.00
2018-12-30T10:39:04.189Z,15.73
2018-12-30T10:41:33.911Z,14.97
2018-12-30T10:44:03.440Z,16.73
2018-12-30T10:46:32.934Z,14.83
2018-12-30T10:49:02.268Z,17.43
2018-12-30T10:51:31.714Z,15.27
2018-12-30T10:54:02.282Z,14.57
2018-12-30T10:56:31.575Z,16.53
2018-12-30T10:59:01.048Z,12.37
2018-12-30T11:01:30.484Z,15.80
2018-12-30T11:03:59.851Z,13.80
2018-12-30T11:06:29.482Z,14.80
2018-12-30T11:08:58.849Z,17.50
2018-12-30T11:11:28.473Z,17.07
2018-12-30T11:13:57.828Z,12.37
2018-12-30T11:16:27.494Z,17.50
2018-12-30T11:18:56.878Z,14.17
2018-12-30T11:21:26.241Z,16.33
2018-12-30T11:23:55.446Z,16.40
2018-12-30T11:26:24.835Z,17.80
2018-12-30T11:28:54.176Z,17.93
2018-12-30T11:31:23.456Z,15.13
2018-12-30T11:33:52.758Z,14.03
2018-12-30T11:36:22.055Z,12.10
2018-12-30T11:38:51.820Z,13.67
2018-12-30T11:41:21.453Z,18.43
2018-12-30T11:43:51.171Z,16.43
2018-12-30T11:46:20.353Z,12.67
2018-12-30T11:48:50.031Z,17.83
2018-12-30T11:51:19.718Z,20.70
2018-12-30T11:53:49.834Z,16.77
2018-12-30T11:56:19.227Z,27.47
2018-12-30T11:58:48.551Z,18.30
2018-12-30T12:01:17.913Z,13.50
2018-12-30T12:03:47.154Z,14.00
2018-12-30T12:06:16.485Z,15.90
2018-12-30T12:08:45.819Z,15.03
2018-12-30T12:11:15.607Z,17.27
2018-12-30T12:13:45.224Z,12.63
2018-12-30T12:16:14.836Z,15.90
2018-12-30T12:18:44.137Z,15.43
2018-12-30T12:21:13.721Z,19.20
2018-12-30T12:23:43.436Z,15.90
2018-12-30T12:26:12.807Z,15.07
2018-12-30T12:28:42.531Z,16.97
2018-12-30T12:31:12.285Z,16.40
2018-12-30T12:33:41.951Z,15.40
2018-12-30T12:36:12.081Z,13.50
2018-12-30T12:38:41.592Z,16.47
2018-12-30T12:41:10.941Z,15.63
2018-12-30T12:43:40.335Z,18.30
2018-12-30T12:46:09.723Z,16.53
2018-12-30T12:48:39.117Z,15.57
2018-12-30T12:51:08.482Z,17.10
2018-12-30T12:53:37.859Z,18.17
2018-12-30T12:56:07.350Z,17.20
2018-12-30T12:58:36.645Z,19.73
2018-12-30T13:01:06.191Z,17.77
2018-12-30T13:03:35.489Z,15.07
2018-12-30T13:06:04.846Z,17.27
2018-12-30T13:08:34.557Z,18.23
2018-12-30T13:11:03.979Z,17.70
2018-12-30T13:13:33.275Z,16.07
2018-12-30T13:16:03.443Z,15.43
2018-12-30T13:18:33.073Z,17.33
2018-12-30T13:21:02.698Z,19.43
2018-12-30T13:23:32.374Z,18.33
2018-12-30T13:26:01.643Z,20.47
2018-12-30T13:28:31.019Z,19.97
2018-12-30T13:31:00.305Z,21.57
2018-12-30T13:33:29.528Z,22.97
2018-12-30T13:35:59.789Z,20.37
2018-12-30T13:38:29.433Z,24.93
2018-12-30T13:40:58.852Z,21.07
2018-12-30T13:43:29.976Z,22.47
2018-12-30T13:45:59.954Z,23.80
2018-12-30T13:48:33.377Z,25.50
2018-12-30T13:51:03.187Z,24.50
2018-12-30T13:53:32.766Z,25.57
2018-12-30T13:56:02.853Z,26.70
2018-12-30T13:58:32.124Z,28.53
2018-12-30T14:01:01.855Z,27.07
2018-12-30T14:03:31.228Z,26.80
2018-12-30T14:06:00.809Z,29.60
2018-12-30T14:08:30.096Z,30.23
2018-12-30T14:10:59.510Z,29.53
2018-12-30T14:13:28.871Z,29.53
2018-12-30T14:15:58.183Z,31.63
2018-12-30T14:18:27.901Z,28.23
2018-12-30T14:20:57.312Z,29.63
2018-12-30T14:23:26.931Z,30.77
2018-12-30T14:25:56.329Z,31.27
2018-12-30T14:28:26.039Z,31.20
2018-12-30T14:30:55.330Z,30.67
2018-12-30T14:33:24.723Z,31.50
2018-12-30T14:35:54.007Z,30.33
2018-12-30T14:38:24.007Z,35.17
2018-12-30T14:40:53.334Z,34.23
2018-12-30T14:43:22.728Z,31.17
2018-12-30T14:45:52.012Z,32.27
2018-12-30T14:48:21.808Z,33.27
2018-12-30T14:50:51.293Z,34.00
2018-12-30T14:53:20.588Z,32.97
2018-12-30T14:55:50.297Z,39.33
2018-12-30T14:58:19.806Z,35.20
2018-12-30T15:00:49.246Z,36.87
2018-12-30T15:03:18.591Z,34.00
2018-12-30T15:05:48.583Z,35.97
2018-12-30T15:08:17.977Z,36.37
2018-12-30T15:10:47.739Z,43.90
2018-12-30T15:13:17.470Z,44.13
2018-12-30T15:15:46.734Z,43.63
2018-12-30T15:18:16.129Z,47.53
2018-12-30T15:20:45.674Z,49.63
2018-12-30T15:23:15.085Z,46.10
2018-12-30T15:25:44.949Z,47.73
2018-12-30T15:28:14.310Z,47.33
2018-12-30T15:30:43.773Z,50.57
2018-12-30T15:33:13.614Z,49.27
2018-12-30T15:35:43.003Z,49.23
2018-12-30T15:38:12.241Z,55.70
2018-12-30T15:40:41.958Z,70.40
2018-12-30T15:43:11.414Z,60.63
2018-12-30T15:45:41.064Z,74.80
2018-12-30T15:48:10.529Z,76.27
2018-12-30T15:50:40.015Z,60.23
2018-12-30T15:53:09.402Z,56.57
2018-12-30T15:55:39.220Z,54.73
2018-12-30T15:58:08.605Z,79.80
2018-12-30T16:00:38.350Z,94.53
2018-12-30T16:03:08.129Z,75.43
2018-12-30T16:05:37.424Z,63.37
2018-12-30T16:08:06.835Z,62.13
2018-12-30T16:10:36.189Z,53.67
2018-12-30T16:13:05.587Z,58.93
2018-12-30T16:15:34.882Z,61.43
2018-12-30T16:18:04.698Z,58.17
2018-12-30T16:20:34.730Z,54.50
2018-12-30T16:23:04.022Z,55.07
2018-12-30T16:25:33.472Z,54.40
2018-12-30T16:28:02.994Z,53.90
2018-12-30T16:30:32.360Z,57.63
2018-12-30T16:33:02.160Z,50.50
2018-12-30T16:35:31.463Z,54.30
2018-12-30T16:38:00.864Z,51.37
2018-12-30T16:40:30.601Z,48.37
2018-12-30T16:42:59.910Z,52.80
2018-12-30T16:45:29.331Z,53.70
2018-12-30T16:47:58.662Z,51.87
2018-12-30T16:50:28.309Z,53.70
2018-12-30T16:52:57.908Z,54.03
2018-12-30T16:55:34.699Z,53.37
2018-12-30T16:57:58.684Z,98.37
2018-12-30T17:00:28.153Z,60.03
2018-12-30T17:02:57.728Z,58.23
2018-12-30T17:05:27.111Z,57.77
2018-12-30T17:07:56.480Z,60.77
2018-12-30T17:10:26.360Z,56.07
2018-12-30T17:12:55.840Z,61.20
2018-12-30T17:15:25.578Z,56.87
2018-12-30T17:17:55.458Z,60.90
2018-12-30T17:20:25.751Z,59.27
2018-12-30T17:22:55.557Z,63.33
2018-12-30T17:25:24.871Z,60.57
2018-12-30T17:27:54.256Z,68.47
2018-12-30T17:30:23.547Z,72.50
2018-12-30T17:32:52.925Z,72.63
2018-12-30T17:35:22.476Z,73.23
2018-12-30T17:37:51.901Z,71.57
2018-12-30T17:40:21.301Z,88.93
2018-12-30T17:42:51.302Z,91.70
2018-12-30T17:45:20.675Z,87.40
2018-12-30T17:47:49.974Z,85.80
2018-12-30T17:50:19.360Z,84.70
2018-12-30T17:52:49.109Z,96.73
2018-12-30T17:55:18.432Z,97.07
2018-12-30T17:57:48.440Z,90.00
2018-12-30T18:00:17.825Z,101.83
2018-12-30T18:02:47.506Z,94.77
2018-12-30T18:05:16.936Z,96.83
2018-12-30T18:07:46.566Z,101.80
2018-12-30T18:10:15.803Z,92.07
2018-12-30T18:12:45.164Z,109.07
2018-12-30T18:15:14.868Z,108.90
2018-12-30T18:17:44.255Z,98.03
2018-12-30T18:20:13.898Z,108.63
2018-12-30T18:22:43.190Z,112.73
2018-12-30T18:25:12.575Z,106.07
2018-12-30T18:27:41.858Z,112.20
2018-12-30T18:30:11.598Z,92.43
2018-12-30T18:32:41.311Z,106.87
2018-12-30T18:35:28.604Z,110.43
2018-12-30T18:37:57.984Z,111.20
2018-12-30T18:40:27.353Z,108.97
2018-12-30T18:42:57.067Z,106.47
2018-12-30T18:45:26.459Z,113.97
2018-12-30T18:47:55.742Z,115.60
2018-12-30T18:50:43.542Z,110.53
2018-12-30T18:53:31.016Z,111.33
2018-12-30T18:56:18.102Z,98.53
2018-12-30T18:59:05.472Z,121.80
2018-12-30T19:01:34.871Z,120.07
2018-12-30T19:04:22.130Z,140.70
2018-12-30T19:06:51.539Z,118.60
2018-12-30T19:09:21.301Z,134.50
2018-12-30T19:12:08.724Z,119.43
2018-12-30T19:14:38.063Z,136.93
2018-12-30T19:17:07.835Z,123.10
2018-12-30T19:19:55.539Z,123.60
2018-12-30T19:22:25.126Z,120.57
2018-12-30T19:24:54.538Z,122.97
2018-12-30T19:27:24.433Z,125.90
2018-12-30T19:29:53.864Z,133.67
2018-12-30T19:32:41.190Z,112.67
2018-12-30T19:35:10.562Z,124.60
2018-12-30T19:37:39.914Z,122.67
2018-12-30T19:40:10.890Z,112.30
2018-12-30T19:42:57.991Z,95.93
2018-12-30T19:45:27.772Z,114.63
2018-12-30T19:48:15.653Z,119.63
2018-12-30T19:50:46.079Z,114.20
2018-12-30T19:53:16.087Z,112.83
2018-12-30T19:55:46.193Z,105.57
2018-12-30T19:58:16.288Z,102.70
2018-12-30T20:00:46.493Z,98.33
2018-12-30T20:03:16.474Z,107.53
2018-12-30T20:05:46.789Z,112.50
2018-12-30T20:08:16.800Z,112.90
2018-12-30T20:10:46.817Z,116.53
2018-12-30T20:13:16.853Z,132.00
2018-12-30T20:15:47.172Z,131.73
2018-12-30T20:18:17.291Z,139.77
2018-12-30T20:20:47.829Z,148.43
2018-12-30T20:23:17.943Z,124.83
2018-12-30T20:25:48.131Z,152.17
2018-12-30T20:28:18.293Z,146.53
2018-12-30T20:30:49.919Z,138.97
2018-12-30T20:33:19.869Z,127.50
2018-12-30T20:35:50.082Z,128.47
2018-12-30T20:38:20.584Z,135.80
2018-12-30T20:40:50.602Z,150.27
2018-12-30T20:43:20.789Z,149.30
2018-12-30T20:45:50.635Z,151.33
2018-12-30T20:48:20.839Z,152.50
2018-12-30T20:50:50.574Z,144.97
2018-12-30T20:53:21.863Z,141.13
2018-12-30T20:55:51.162Z,149.27
2018-12-30T20:58:20.596Z,146.57
2018-12-30T21:00:49.991Z,166.30
2018-12-30T21:03:19.520Z,182.97
2018-12-30T21:05:48.936Z,170.77
2018-12-30T21:08:18.479Z,182.63
2018-12-30T21:10:47.866Z,179.97
2018-12-30T21:13:17.662Z,192.07
2018-12-30T21:15:47.062Z,186.13
2018-12-30T21:18:16.853Z,180.97
2018-12-30T21:20:46.354Z,178.23
2018-12-30T21:23:16.050Z,191.53
2018-12-30T21:25:45.429Z,187.37
2018-12-30T21:28:14.990Z,199.70
2018-12-30T21:30:44.790Z,197.20
2018-12-30T21:33:14.198Z,208.63
2018-12-30T21:35:43.642Z,207.00
2018-12-30T21:38:13.022Z,235.47
2018-12-30T21:40:42.410Z,211.53
2018-12-30T21:43:11.849Z,229.37
2018-12-30T21:45:41.265Z,259.03
2018-12-30T21:48:10.836Z,224.17
2018-12-30T21:50:40.243Z,179.93
2018-12-30T21:53:09.694Z,188.30
2018-12-30T21:55:39.081Z,186.43
2018-12-30T21:58:08.463Z,180.10
2018-12-30T22:00:38.171Z,158.97
2018-12-30T22:03:07.588Z,125.77
2018-12-30T22:05:37.057Z,119.77
2018-12-30T22:08:07.592Z,102.67
2018-12-30T22:10:36.994Z,97.00
2018-12-30T22:13:06.318Z,98.67
2018-12-30T22:15:36.058Z,103.40
2018-12-30T22:18:08.655Z,113.23
2018-12-30T22:20:38.461Z,124.50
2018-12-30T22:23:08.103Z,112.37
2018-12-30T22:25:38.084Z,131.63
2018-12-30T22:28:07.409Z,133.33
2018-12-30T22:30:36.695Z,150.43
2018-12-30T22:33:06.403Z,143.00
2018-12-30T22:35:35.778Z,143.63
2018-12-30T22:38:05.167Z,171.20
2018-12-30T22:40:34.549Z,165.37
2018-12-30T22:43:04.501Z,196.07
2018-12-30T22:45:34.128Z,191.47
2018-12-30T22:48:03.527Z,160.93
2018-12-30T22:50:32.878Z,162.93
2018-12-30T22:53:02.260Z,173.17
2018-12-30T22:55:32.015Z,148.20
2018-12-30T22:58:01.417Z,160.03
2018-12-30T23:00:48.324Z,173.93
2018-12-30T23:03:18.082Z,165.20
2018-12-30T23:05:47.785Z,180.13
2018-12-30T23:08:17.153Z,132.00
2018-12-30T23:10:48.071Z,139.93
2018-12-30T23:13:17.283Z,154.57
2018-12-30T23:15:46.695Z,162.40
2018-12-30T23:18:16.194Z,163.27
2018-12-30T23:20:45.580Z,154.13
2018-12-30T23:23:14.957Z,180.63
2018-12-30T23:25:45.863Z,181.27
2018-12-30T23:28:15.373Z,215.57
2018-12-30T23:30:44.766Z,199.30
2018-12-30T23:33:14.161Z,208.23
2018-12-30T23:35:43.820Z,181.70
2018-12-30T23:38:13.484Z,184.50
2018-12-30T23:40:42.903Z,219.07
2018-12-30T23:43:12.284Z,228.43
2018-12-30T23:45:41.928Z,199.63
2018-12-30T23:48:12.708Z,204.60
2018-12-30T23:50:42.632Z,189.53
2018-12-30T23:53:11.887Z,169.30
2018-12-30T23:55:41.333Z,159.43
2018-12-30T23:58:10.664Z,166.27
